sensor_id;sensor_type;location;lat;lon;timestamp;pressure;altitude;pressure_sealevel;temperature;humidity
44349;BME280;30068;50.986;4.564;2023-03-13T00:02:19;100365.31;;;16.57;nan
44349;BME280;30068;50.986;4.564;2023-03-13T00:04:45;100358.31;;;16.79;nan
44349;BME280;30068;50.986;4.564;2023-03-13T00:07:10;100359.00;;;16.73;nan
44349;BME280;30068;50.986;4.564;2023-03-13T00:09:35;100365.13;;;16.67;nan
44349;BME280;30068;50.986;4.564;2023-03-13T00:12:00;100348.75;;;16.77;nan
44349;BME280;30068;50.986;4.564;2023-03-13T00:14:25;100345.91;;;16.70;nan
44349;BME280;30068;50.986;4.564;2023-03-13T00:16:51;100347.41;;;16.73;nan
44349;BME280;30068;50.986;4.564;2023-03-13T00:19:16;100344.09;;;16.63;nan
44349;BME280;30068;50.986;4.564;2023-03-13T00:21:41;100333.75;;;16.74;nan
44349;BME280;30068;50.986;4.564;2023-03-13T00:24:07;100328.63;;;16.65;nan
44349;BME280;30068;50.986;4.564;2023-03-13T00:26:33;100322.69;;;16.69;nan
44349;BME280;30068;50.986;4.564;2023-03-13T00:28:58;100321.38;;;16.88;nan
44349;BME280;30068;50.986;4.564;2023-03-13T00:31:25;100300.56;;;16.51;nan
44349;BME280;30068;50.986;4.564;2023-03-13T00:33:52;100292.03;;;16.70;nan
44349;BME280;30068;50.986;4.564;2023-03-13T00:36:20;100295.06;;;16.67;nan
44349;BME280;30068;50.986;4.564;2023-03-13T00:38:46;100296.13;;;16.58;nan
44349;BME280;30068;50.986;4.564;2023-03-13T00:41:15;100291.81;;;16.49;nan
44349;BME280;30068;50.986;4.564;2023-03-13T00:43:41;100276.94;;;16.53;nan
44349;BME280;30068;50.986;4.564;2023-03-13T00:46:07;100272.94;;;16.49;nan
44349;BME280;30068;50.986;4.564;2023-03-13T00:48:32;100282.03;;;16.48;nan
44349;BME280;30068;50.986;4.564;2023-03-13T00:50:58;100283.16;;;16.31;nan
44349;BME280;30068;50.986;4.564;2023-03-13T00:53:23;100275.91;;;16.62;nan
44349;BME280;30068;50.986;4.564;2023-03-13T00:56:05;100278.41;;;16.33;nan
44349;BME280;30068;50.986;4.564;2023-03-13T00:58:31;100283.84;;;16.25;nan
44349;BME280;30068;50.986;4.564;2023-03-13T01:01:04;100263.84;;;16.50;nan
44349;BME280;30068;50.986;4.564;2023-03-13T01:03:30;100265.13;;;16.31;nan
44349;BME280;30068;50.986;4.564;2023-03-13T01:05:56;100257.47;;;16.51;nan
44349;BME280;30068;50.986;4.564;2023-03-13T01:08:21;100261.56;;;16.39;nan
44349;BME280;30068;50.986;4.564;2023-03-13T01:10:46;100252.59;;;16.24;nan
44349;BME280;30068;50.986;4.564;2023-03-13T01:13:11;100248.75;;;16.41;nan
44349;BME280;30068;50.986;4.564;2023-03-13T01:15:36;100250.84;;;16.31;nan
44349;BME280;30068;50.986;4.564;2023-03-13T01:18:02;100242.81;;;16.45;nan
44349;BME280;30068;50.986;4.564;2023-03-13T01:20:28;100245.56;;;16.14;nan
44349;BME280;30068;50.986;4.564;2023-03-13T01:22:53;100250.34;;;16.27;nan
44349;BME280;30068;50.986;4.564;2023-03-13T01:25:18;100241.94;;;16.30;nan
44349;BME280;30068;50.986;4.564;2023-03-13T01:27:43;100246.09;;;16.33;nan
44349;BME280;30068;50.986;4.564;2023-03-13T01:30:09;100233.09;;;16.13;nan
44349;BME280;30068;50.986;4.564;2023-03-13T01:32:34;100233.41;;;16.18;nan
44349;BME280;30068;50.986;4.564;2023-03-13T01:35:00;100221.50;;;16.44;nan
44349;BME280;30068;50.986;4.564;2023-03-13T01:37:25;100217.66;;;16.07;nan
44349;BME280;30068;50.986;4.564;2023-03-13T01:39:50;100218.59;;;16.23;nan
44349;BME280;30068;50.986;4.564;2023-03-13T01:42:15;100193.88;;;16.19;nan
44349;BME280;30068;50.986;4.564;2023-03-13T01:44:50;100199.31;;;16.11;nan
44349;BME280;30068;50.986;4.564;2023-03-13T01:47:16;100189.06;;;16.06;nan
44349;BME280;30068;50.986;4.564;2023-03-13T01:49:41;100178.97;;;16.31;nan
44349;BME280;30068;50.986;4.564;2023-03-13T01:52:12;100168.03;;;16.33;nan
44349;BME280;30068;50.986;4.564;2023-03-13T01:54:41;100157.56;;;16.15;nan
44349;BME280;30068;50.986;4.564;2023-03-13T01:57:17;100144.56;;;16.18;nan
44349;BME280;30068;50.986;4.564;2023-03-13T01:59:53;100132.78;;;15.97;nan
44349;BME280;30068;50.986;4.564;2023-03-13T02:02:20;100144.06;;;16.23;nan
44349;BME280;30068;50.986;4.564;2023-03-13T02:04:47;100142.19;;;16.01;nan
44349;BME280;30068;50.986;4.564;2023-03-13T02:07:16;100140.03;;;15.96;nan
44349;BME280;30068;50.986;4.564;2023-03-13T02:09:42;100132.13;;;16.17;nan
44349;BME280;30068;50.986;4.564;2023-03-13T02:12:13;100139.50;;;16.01;nan
44349;BME280;30068;50.986;4.564;2023-03-13T02:14:41;100133.53;;;16.13;nan
44349;BME280;30068;50.986;4.564;2023-03-13T02:17:07;100131.88;;;16.04;nan
44349;BME280;30068;50.986;4.564;2023-03-13T02:19:37;100127.47;;;16.11;nan
44349;BME280;30068;50.986;4.564;2023-03-13T02:24:47;100120.06;;;16.13;nan
44349;BME280;30068;50.986;4.564;2023-03-13T02:27:15;100124.84;;;16.26;nan
44349;BME280;30068;50.986;4.564;2023-03-13T02:29:42;100120.97;;;16.29;nan
44349;BME280;30068;50.986;4.564;2023-03-13T02:32:08;100124.16;;;16.09;nan
44349;BME280;30068;50.986;4.564;2023-03-13T02:34:33;100113.25;;;16.03;nan
44349;BME280;30068;50.986;4.564;2023-03-13T02:36:59;100098.13;;;16.02;nan
44349;BME280;30068;50.986;4.564;2023-03-13T02:39:26;100105.53;;;16.00;nan
44349;BME280;30068;50.986;4.564;2023-03-13T02:41:52;100114.09;;;16.03;nan
44349;BME280;30068;50.986;4.564;2023-03-13T02:44:18;100115.75;;;16.04;nan
44349;BME280;30068;50.986;4.564;2023-03-13T02:46:44;100116.59;;;16.05;nan
44349;BME280;30068;50.986;4.564;2023-03-13T02:49:18;100091.72;;;16.03;nan
44349;BME280;30068;50.986;4.564;2023-03-13T02:51:44;100122.47;;;16.08;nan
44349;BME280;30068;50.986;4.564;2023-03-13T02:54:15;100099.59;;;16.04;nan
44349;BME280;30068;50.986;4.564;2023-03-13T02:56:42;100106.66;;;16.05;nan
44349;BME280;30068;50.986;4.564;2023-03-13T02:59:08;100118.03;;;15.93;nan
44349;BME280;30068;50.986;4.564;2023-03-13T03:01:33;100109.41;;;15.97;nan
44349;BME280;30068;50.986;4.564;2023-03-13T03:03:58;100111.47;;;15.95;nan
44349;BME280;30068;50.986;4.564;2023-03-13T03:06:23;100113.94;;;15.97;nan
44349;BME280;30068;50.986;4.564;2023-03-13T03:08:49;100106.53;;;15.99;nan
44349;BME280;30068;50.986;4.564;2023-03-13T03:11:14;100099.34;;;15.91;nan
44349;BME280;30068;50.986;4.564;2023-03-13T03:13:39;100083.81;;;16.01;nan
44349;BME280;30068;50.986;4.564;2023-03-13T03:16:05;100083.53;;;15.96;nan
44349;BME280;30068;50.986;4.564;2023-03-13T03:18:31;100081.03;;;15.95;nan
44349;BME280;30068;50.986;4.564;2023-03-13T03:20:56;100073.59;;;15.97;nan
44349;BME280;30068;50.986;4.564;2023-03-13T03:23:21;100076.09;;;15.98;nan
44349;BME280;30068;50.986;4.564;2023-03-13T03:25:47;100091.59;;;15.96;nan
44349;BME280;30068;50.986;4.564;2023-03-13T03:28:12;100074.84;;;15.86;nan
44349;BME280;30068;50.986;4.564;2023-03-13T03:30:37;100072.94;;;15.95;nan
44349;BME280;30068;50.986;4.564;2023-03-13T03:33:02;100076.53;;;15.87;nan
44349;BME280;30068;50.986;4.564;2023-03-13T03:35:28;100074.06;;;16.00;nan
44349;BME280;30068;50.986;4.564;2023-03-13T03:37:53;100064.88;;;15.95;nan
44349;BME280;30068;50.986;4.564;2023-03-13T03:40:18;100056.69;;;15.88;nan
44349;BME280;30068;50.986;4.564;2023-03-13T03:42:45;100069.13;;;15.89;nan
44349;BME280;30068;50.986;4.564;2023-03-13T03:45:10;100071.16;;;15.87;nan
44349;BME280;30068;50.986;4.564;2023-03-13T03:47:35;100072.28;;;15.93;nan
44349;BME280;30068;50.986;4.564;2023-03-13T03:50:01;100071.88;;;15.81;nan
44349;BME280;30068;50.986;4.564;2023-03-13T03:52:27;100063.88;;;15.96;nan
44349;BME280;30068;50.986;4.564;2023-03-13T03:54:53;100061.63;;;15.99;nan
44349;BME280;30068;50.986;4.564;2023-03-13T03:57:18;100060.00;;;15.90;nan
44349;BME280;30068;50.986;4.564;2023-03-13T03:59:43;100064.38;;;15.91;nan
44349;BME280;30068;50.986;4.564;2023-03-13T04:02:08;100063.50;;;15.76;nan
44349;BME280;30068;50.986;4.564;2023-03-13T04:04:34;100063.25;;;15.86;nan
44349;BME280;30068;50.986;4.564;2023-03-13T04:06:59;100072.00;;;15.88;nan
44349;BME280;30068;50.986;4.564;2023-03-13T04:09:24;100051.59;;;15.93;nan
44349;BME280;30068;50.986;4.564;2023-03-13T04:11:50;100037.84;;;15.88;nan
44349;BME280;30068;50.986;4.564;2023-03-13T04:14:15;100031.34;;;15.83;nan
44349;BME280;30068;50.986;4.564;2023-03-13T04:16:40;100035.16;;;15.88;nan
44349;BME280;30068;50.986;4.564;2023-03-13T04:19:05;100033.00;;;15.84;nan
44349;BME280;30068;50.986;4.564;2023-03-13T04:21:31;100021.03;;;15.86;nan
44349;BME280;30068;50.986;4.564;2023-03-13T04:23:56;100032.81;;;15.85;nan
44349;BME280;30068;50.986;4.564;2023-03-13T04:26:22;100028.81;;;15.81;nan
44349;BME280;30068;50.986;4.564;2023-03-13T04:28:47;100038.69;;;15.89;nan
44349;BME280;30068;50.986;4.564;2023-03-13T04:31:12;100051.94;;;15.90;nan
44349;BME280;30068;50.986;4.564;2023-03-13T04:33:37;100073.16;;;15.85;nan
44349;BME280;30068;50.986;4.564;2023-03-13T04:36:03;100053.31;;;15.86;nan
44349;BME280;30068;50.986;4.564;2023-03-13T04:38:28;100067.78;;;15.85;nan
44349;BME280;30068;50.986;4.564;2023-03-13T04:40:53;100063.97;;;15.79;nan
44349;BME280;30068;50.986;4.564;2023-03-13T04:43:18;100070.53;;;15.77;nan
44349;BME280;30068;50.986;4.564;2023-03-13T04:45:44;100065.66;;;15.80;nan
44349;BME280;30068;50.986;4.564;2023-03-13T04:48:10;100045.53;;;15.91;nan
44349;BME280;30068;50.986;4.564;2023-03-13T04:50:35;100047.50;;;15.83;nan
44349;BME280;30068;50.986;4.564;2023-03-13T04:53:00;100055.00;;;15.87;nan
44349;BME280;30068;50.986;4.564;2023-03-13T04:55:26;100051.19;;;15.82;nan
44349;BME280;30068;50.986;4.564;2023-03-13T04:57:51;100057.41;;;15.82;nan
44349;BME280;30068;50.986;4.564;2023-03-13T05:00:16;100054.06;;;15.80;nan
44349;BME280;30068;50.986;4.564;2023-03-13T05:02:41;100039.94;;;16.01;nan
44349;BME280;30068;50.986;4.564;2023-03-13T05:05:07;100051.50;;;16.24;nan
44349;BME280;30068;50.986;4.564;2023-03-13T05:07:32;100028.88;;;16.33;nan
44349;BME280;30068;50.986;4.564;2023-03-13T05:09:57;100023.56;;;16.77;nan
44349;BME280;30068;50.986;4.564;2023-03-13T05:12:22;100028.88;;;16.71;nan
44349;BME280;30068;50.986;4.564;2023-03-13T05:14:48;100011.78;;;16.78;nan
44349;BME280;30068;50.986;4.564;2023-03-13T05:17:14;100012.47;;;17.02;nan
44349;BME280;30068;50.986;4.564;2023-03-13T05:19:39;100012.28;;;17.03;nan
44349;BME280;30068;50.986;4.564;2023-03-13T05:22:04;99998.41;;;17.06;nan
44349;BME280;30068;50.986;4.564;2023-03-13T05:24:29;100004.31;;;16.95;nan
44349;BME280;30068;50.986;4.564;2023-03-13T05:26:55;100001.78;;;17.08;nan
44349;BME280;30068;50.986;4.564;2023-03-13T05:29:20;100003.34;;;17.17;nan
44349;BME280;30068;50.986;4.564;2023-03-13T05:31:45;100000.41;;;17.33;nan
44349;BME280;30068;50.986;4.564;2023-03-13T05:34:10;100002.78;;;17.22;nan
44349;BME280;30068;50.986;4.564;2023-03-13T05:36:36;100000.09;;;17.07;nan
44349;BME280;30068;50.986;4.564;2023-03-13T05:39:01;99991.50;;;17.33;nan
44349;BME280;30068;50.986;4.564;2023-03-13T05:41:26;99973.38;;;17.48;nan
44349;BME280;30068;50.986;4.564;2023-03-13T05:43:52;99995.78;;;17.63;nan
44349;BME280;30068;50.986;4.564;2023-03-13T05:46:17;99986.44;;;17.45;nan
44349;BME280;30068;50.986;4.564;2023-03-13T05:48:43;99990.47;;;17.34;nan
44349;BME280;30068;50.986;4.564;2023-03-13T05:51:09;99988.53;;;17.28;nan
44349;BME280;30068;50.986;4.564;2023-03-13T05:53:34;99969.03;;;17.47;nan
44349;BME280;30068;50.986;4.564;2023-03-13T05:56:00;99977.81;;;17.70;nan
44349;BME280;30068;50.986;4.564;2023-03-13T05:58:25;99987.09;;;17.68;nan
44349;BME280;30068;50.986;4.564;2023-03-13T06:00:50;99974.16;;;17.42;nan
44349;BME280;30068;50.986;4.564;2023-03-13T06:03:15;99967.03;;;17.34;nan
44349;BME280;30068;50.986;4.564;2023-03-13T06:05:40;99965.50;;;17.25;nan
44349;BME280;30068;50.986;4.564;2023-03-13T06:08:06;99967.38;;;17.46;nan
44349;BME280;30068;50.986;4.564;2023-03-13T06:10:31;99971.53;;;17.49;nan
44349;BME280;30068;50.986;4.564;2023-03-13T06:12:56;99965.63;;;17.38;nan
44349;BME280;30068;50.986;4.564;2023-03-13T06:15:21;99957.06;;;17.35;nan
44349;BME280;30068;50.986;4.564;2023-03-13T06:17:47;99951.25;;;17.31;nan
44349;BME280;30068;50.986;4.564;2023-03-13T06:20:12;99952.34;;;17.37;nan
44349;BME280;30068;50.986;4.564;2023-03-13T06:22:38;99951.53;;;17.22;nan
44349;BME280;30068;50.986;4.564;2023-03-13T06:25:03;99956.28;;;17.20;nan
44349;BME280;30068;50.986;4.564;2023-03-13T06:27:29;99955.66;;;17.18;nan
44349;BME280;30068;50.986;4.564;2023-03-13T06:29:54;99949.75;;;17.29;nan
44349;BME280;30068;50.986;4.564;2023-03-13T06:32:19;99949.63;;;17.16;nan
44349;BME280;30068;50.986;4.564;2023-03-13T06:34:44;99952.50;;;17.14;nan
44349;BME280;30068;50.986;4.564;2023-03-13T06:37:10;99947.78;;;17.02;nan
44349;BME280;30068;50.986;4.564;2023-03-13T06:39:35;99952.81;;;17.05;nan
44349;BME280;30068;50.986;4.564;2023-03-13T06:42:00;99960.53;;;16.93;nan
44349;BME280;30068;50.986;4.564;2023-03-13T06:44:25;99958.66;;;16.93;nan
44349;BME280;30068;50.986;4.564;2023-03-13T06:46:51;99963.97;;;17.02;nan
44349;BME280;30068;50.986;4.564;2023-03-13T06:49:16;99956.31;;;16.69;nan
44349;BME280;30068;50.986;4.564;2023-03-13T06:51:41;99953.34;;;17.15;nan
44349;BME280;30068;50.986;4.564;2023-03-13T06:54:06;99958.59;;;16.87;nan
44349;BME280;30068;50.986;4.564;2023-03-13T06:56:32;99969.06;;;17.11;nan
44349;BME280;30068;50.986;4.564;2023-03-13T06:58:57;99963.91;;;16.80;nan
44349;BME280;30068;50.986;4.564;2023-03-13T07:01:22;99946.44;;;16.91;nan
44349;BME280;30068;50.986;4.564;2023-03-13T07:03:48;99960.78;;;16.62;nan
44349;BME280;30068;50.986;4.564;2023-03-13T07:06:13;99948.00;;;16.56;nan
44349;BME280;30068;50.986;4.564;2023-03-13T07:08:38;99962.97;;;16.73;nan
44349;BME280;30068;50.986;4.564;2023-03-13T07:11:04;99947.00;;;16.57;nan
44349;BME280;30068;50.986;4.564;2023-03-13T07:13:30;99956.66;;;16.81;nan
44349;BME280;30068;50.986;4.564;2023-03-13T07:15:59;99945.88;;;16.51;nan
44349;BME280;30068;50.986;4.564;2023-03-13T07:18:25;99962.16;;;16.58;nan
44349;BME280;30068;50.986;4.564;2023-03-13T07:20:53;99963.06;;;16.65;nan
44349;BME280;30068;50.986;4.564;2023-03-13T07:23:19;99954.53;;;16.76;nan
44349;BME280;30068;50.986;4.564;2023-03-13T07:25:51;99955.25;;;16.41;nan
44349;BME280;30068;50.986;4.564;2023-03-13T07:28:17;99946.44;;;16.32;nan
44349;BME280;30068;50.986;4.564;2023-03-13T07:30:42;99954.81;;;16.67;nan
44349;BME280;30068;50.986;4.564;2023-03-13T07:33:07;99950.63;;;16.35;nan
44349;BME280;30068;50.986;4.564;2023-03-13T07:35:32;99940.88;;;16.48;nan
44349;BME280;30068;50.986;4.564;2023-03-13T07:37:57;99934.72;;;16.25;nan
44349;BME280;30068;50.986;4.564;2023-03-13T07:40:23;99948.66;;;16.29;nan
44349;BME280;30068;50.986;4.564;2023-03-13T07:42:48;99945.59;;;16.32;nan
44349;BME280;30068;50.986;4.564;2023-03-13T07:45:13;99953.59;;;16.40;nan
44349;BME280;30068;50.986;4.564;2023-03-13T07:47:38;99933.63;;;16.34;nan
44349;BME280;30068;50.986;4.564;2023-03-13T07:50:03;99929.34;;;16.25;nan
44349;BME280;30068;50.986;4.564;2023-03-13T07:52:29;99949.22;;;16.39;nan
44349;BME280;30068;50.986;4.564;2023-03-13T07:54:54;99948.50;;;16.30;nan
44349;BME280;30068;50.986;4.564;2023-03-13T07:57:19;99954.78;;;16.23;nan
44349;BME280;30068;50.986;4.564;2023-03-13T07:59:44;99934.19;;;16.30;nan
44349;BME280;30068;50.986;4.564;2023-03-13T08:02:13;99945.78;;;16.15;nan
44349;BME280;30068;50.986;4.564;2023-03-13T08:04:40;99948.66;;;16.14;nan
44349;BME280;30068;50.986;4.564;2023-03-13T08:07:07;99942.44;;;16.13;nan
44349;BME280;30068;50.986;4.564;2023-03-13T08:09:32;99937.97;;;16.20;nan
44349;BME280;30068;50.986;4.564;2023-03-13T08:11:57;99939.28;;;16.25;nan
44349;BME280;30068;50.986;4.564;2023-03-13T08:14:22;99933.78;;;16.18;nan
44349;BME280;30068;50.986;4.564;2023-03-13T08:16:48;99928.97;;;16.28;nan
44349;BME280;30068;50.986;4.564;2023-03-13T08:19:13;99939.00;;;16.19;nan
44349;BME280;30068;50.986;4.564;2023-03-13T08:21:38;99934.81;;;16.32;nan
44349;BME280;30068;50.986;4.564;2023-03-13T08:24:07;99933.69;;;16.11;nan
44349;BME280;30068;50.986;4.564;2023-03-13T08:26:34;99931.22;;;16.10;nan
44349;BME280;30068;50.986;4.564;2023-03-13T08:29:03;99923.50;;;16.22;nan
44349;BME280;30068;50.986;4.564;2023-03-13T08:31:33;99928.22;;;16.19;nan
44349;BME280;30068;50.986;4.564;2023-03-13T08:33:59;99934.47;;;16.35;nan
44349;BME280;30068;50.986;4.564;2023-03-13T08:36:29;99930.09;;;16.19;nan
44349;BME280;30068;50.986;4.564;2023-03-13T08:38:58;99925.53;;;16.19;nan
44349;BME280;30068;50.986;4.564;2023-03-13T08:41:25;99936.50;;;16.33;nan
44349;BME280;30068;50.986;4.564;2023-03-13T08:43:52;99917.72;;;16.25;nan
44349;BME280;30068;50.986;4.564;2023-03-13T08:46:17;99924.69;;;16.19;nan
44349;BME280;30068;50.986;4.564;2023-03-13T08:48:43;99918.00;;;16.00;nan
44349;BME280;30068;50.986;4.564;2023-03-13T08:51:12;99917.47;;;16.19;nan
44349;BME280;30068;50.986;4.564;2023-03-13T08:53:38;99908.53;;;16.19;nan
44349;BME280;30068;50.986;4.564;2023-03-13T08:56:04;99912.06;;;16.19;nan
44349;BME280;30068;50.986;4.564;2023-03-13T08:58:30;99910.13;;;16.13;nan
44349;BME280;30068;50.986;4.564;2023-03-13T09:01:00;99899.63;;;16.18;nan
44349;BME280;30068;50.986;4.564;2023-03-13T09:03:25;99892.47;;;16.11;nan
44349;BME280;30068;50.986;4.564;2023-03-13T09:05:50;99899.28;;;16.22;nan
44349;BME280;30068;50.986;4.564;2023-03-13T09:08:15;99886.28;;;16.25;nan
44349;BME280;30068;50.986;4.564;2023-03-13T09:10:41;99897.16;;;16.17;nan
44349;BME280;30068;50.986;4.564;2023-03-13T09:13:06;99902.22;;;16.12;nan
44349;BME280;30068;50.986;4.564;2023-03-13T09:15:31;99895.09;;;16.19;nan
44349;BME280;30068;50.986;4.564;2023-03-13T09:17:56;99900.88;;;16.31;nan
44349;BME280;30068;50.986;4.564;2023-03-13T09:20:22;99888.13;;;16.39;nan
44349;BME280;30068;50.986;4.564;2023-03-13T09:22:47;99891.28;;;16.28;nan
44349;BME280;30068;50.986;4.564;2023-03-13T09:25:12;99874.97;;;16.15;nan
44349;BME280;30068;50.986;4.564;2023-03-13T09:27:38;99879.13;;;16.17;nan
44349;BME280;30068;50.986;4.564;2023-03-13T09:30:03;99875.72;;;16.09;nan
44349;BME280;30068;50.986;4.564;2023-03-13T09:32:28;99881.81;;;16.17;nan
44349;BME280;30068;50.986;4.564;2023-03-13T09:34:53;99867.16;;;16.20;nan
44349;BME280;30068;50.986;4.564;2023-03-13T09:37:19;99887.84;;;16.05;nan
44349;BME280;30068;50.986;4.564;2023-03-13T09:39:47;99860.94;;;16.19;nan
44349;BME280;30068;50.986;4.564;2023-03-13T09:42:13;99859.00;;;16.28;nan
44349;BME280;30068;50.986;4.564;2023-03-13T09:50:14;99848.41;;;16.27;nan
44349;BME280;30068;50.986;4.564;2023-03-13T09:52:40;99852.03;;;16.04;nan
44349;BME280;30068;50.986;4.564;2023-03-13T09:55:13;99841.25;;;16.34;nan
44349;BME280;30068;50.986;4.564;2023-03-13T09:57:45;99854.81;;;16.26;nan
44349;BME280;30068;50.986;4.564;2023-03-13T10:00:15;99842.84;;;16.13;nan
44349;BME280;30068;50.986;4.564;2023-03-13T10:02:45;99850.56;;;16.16;nan
44349;BME280;30068;50.986;4.564;2023-03-13T10:05:13;99849.50;;;16.17;nan
44349;BME280;30068;50.986;4.564;2023-03-13T10:07:39;99837.53;;;16.64;nan
44349;BME280;30068;50.986;4.564;2023-03-13T10:10:14;99836.69;;;16.34;nan
44349;BME280;30068;50.986;4.564;2023-03-13T10:12:45;99840.41;;;16.18;nan
44349;BME280;30068;50.986;4.564;2023-03-13T10:17:45;99825.81;;;16.57;nan
44349;BME280;30068;50.986;4.564;2023-03-13T10:20:21;99823.91;;;16.36;nan
44349;BME280;30068;50.986;4.564;2023-03-13T10:22:59;99820.38;;;16.36;nan
44349;BME280;30068;50.986;4.564;2023-03-13T10:25:34;99824.66;;;16.30;nan
44349;BME280;30068;50.986;4.564;2023-03-13T10:28:00;99821.53;;;16.48;nan
44349;BME280;30068;50.986;4.564;2023-03-13T10:30:29;99809.81;;;16.70;nan
44349;BME280;30068;50.986;4.564;2023-03-13T10:32:59;99817.06;;;16.70;nan
44349;BME280;30068;50.986;4.564;2023-03-13T10:35:30;99805.19;;;16.64;nan
44349;BME280;30068;50.986;4.564;2023-03-13T10:38:00;99810.13;;;16.31;nan
44349;BME280;30068;50.986;4.564;2023-03-13T10:40:27;99787.94;;;16.44;nan
44349;BME280;30068;50.986;4.564;2023-03-13T10:42:53;99799.03;;;16.70;nan
44349;BME280;30068;50.986;4.564;2023-03-13T10:45:23;99786.84;;;16.95;nan
44349;BME280;30068;50.986;4.564;2023-03-13T10:47:53;99774.81;;;16.55;nan
44349;BME280;30068;50.986;4.564;2023-03-13T10:50:20;99787.81;;;16.67;nan
44349;BME280;30068;50.986;4.564;2023-03-13T10:52:46;99802.88;;;16.61;nan
44349;BME280;30068;50.986;4.564;2023-03-13T10:55:13;99799.97;;;16.98;nan
44349;BME280;30068;50.986;4.564;2023-03-13T10:57:41;99764.88;;;16.71;nan
44349;BME280;30068;50.986;4.564;2023-03-13T11:00:28;99770.56;;;16.82;nan
44349;BME280;30068;50.986;4.564;2023-03-13T11:02:53;99795.63;;;16.62;nan
44349;BME280;30068;50.986;4.564;2023-03-13T11:07:48;99771.78;;;16.80;nan
44349;BME280;30068;50.986;4.564;2023-03-13T11:12:43;99764.16;;;17.05;nan
44349;BME280;30068;50.986;4.564;2023-03-13T11:15:12;99775.69;;;16.98;nan
44349;BME280;30068;50.986;4.564;2023-03-13T11:17:39;99744.75;;;16.94;nan
44349;BME280;30068;50.986;4.564;2023-03-13T11:25:11;99751.00;;;16.95;nan
44349;BME280;30068;50.986;4.564;2023-03-13T11:27:49;99731.81;;;16.83;nan
44349;BME280;30068;50.986;4.564;2023-03-13T11:32:50;99735.34;;;16.84;nan
44349;BME280;30068;50.986;4.564;2023-03-13T11:35:19;99733.28;;;16.86;nan
44349;BME280;30068;50.986;4.564;2023-03-13T11:37:45;99730.03;;;16.90;nan
44349;BME280;30068;50.986;4.564;2023-03-13T11:40:17;99730.69;;;16.71;nan
44349;BME280;30068;50.986;4.564;2023-03-13T11:45:15;99717.22;;;16.71;nan
44349;BME280;30068;50.986;4.564;2023-03-13T11:50:12;99697.47;;;17.20;nan
44349;BME280;30068;50.986;4.564;2023-03-13T11:55:36;99703.28;;;17.17;nan
44349;BME280;30068;50.986;4.564;2023-03-13T11:58:12;99705.09;;;17.10;nan
44349;BME280;30068;50.986;4.564;2023-03-13T12:05:39;99681.06;;;16.87;nan
44349;BME280;30068;50.986;4.564;2023-03-13T12:08:10;99687.00;;;17.04;nan
44349;BME280;30068;50.986;4.564;2023-03-13T12:10:46;99695.81;;;16.91;nan
44349;BME280;30068;50.986;4.564;2023-03-13T12:13:15;99671.81;;;16.96;nan
44349;BME280;30068;50.986;4.564;2023-03-13T12:15:42;99683.84;;;17.00;nan
44349;BME280;30068;50.986;4.564;2023-03-13T12:18:13;99669.72;;;16.91;nan
44349;BME280;30068;50.986;4.564;2023-03-13T12:20:43;99663.28;;;16.92;nan
44349;BME280;30068;50.986;4.564;2023-03-13T12:25:43;99656.03;;;17.27;nan
44349;BME280;30068;50.986;4.564;2023-03-13T12:31:05;99652.50;;;16.92;nan
44349;BME280;30068;50.986;4.564;2023-03-13T12:33:34;99635.53;;;16.92;nan
44349;BME280;30068;50.986;4.564;2023-03-13T12:38:40;99641.81;;;17.40;nan
44349;BME280;30068;50.986;4.564;2023-03-13T12:41:18;99641.44;;;17.09;nan
44349;BME280;30068;50.986;4.564;2023-03-13T12:43:46;99633.03;;;17.25;nan
44349;BME280;30068;50.986;4.564;2023-03-13T12:56:53;99646.16;;;16.79;nan
44349;BME280;30068;50.986;4.564;2023-03-13T12:59:32;99632.59;;;16.93;nan
44349;BME280;30068;50.986;4.564;2023-03-13T13:01:59;99628.19;;;17.14;nan
44349;BME280;30068;50.986;4.564;2023-03-13T13:04:26;99630.41;;;17.38;nan
44349;BME280;30068;50.986;4.564;2023-03-13T13:06:56;99622.81;;;17.20;nan
44349;BME280;30068;50.986;4.564;2023-03-13T13:09:34;99619.63;;;17.38;nan
44349;BME280;30068;50.986;4.564;2023-03-13T13:12:21;99635.66;;;17.12;nan
44349;BME280;30068;50.986;4.564;2023-03-13T13:17:15;99603.56;;;17.23;nan
44349;BME280;30068;50.986;4.564;2023-03-13T13:19:44;99599.03;;;17.30;nan
44349;BME280;30068;50.986;4.564;2023-03-13T13:24:54;99585.06;;;17.14;nan
44349;BME280;30068;50.986;4.564;2023-03-13T13:29:59;99567.47;;;17.18;nan
44349;BME280;30068;50.986;4.564;2023-03-13T13:35:34;99574.25;;;17.14;nan
44349;BME280;30068;50.986;4.564;2023-03-13T13:38:19;99577.13;;;17.47;nan
44349;BME280;30068;50.986;4.564;2023-03-13T13:48:35;99556.69;;;17.18;nan
44349;BME280;30068;50.986;4.564;2023-03-13T13:53:48;99552.63;;;17.48;nan
44349;BME280;30068;50.986;4.564;2023-03-13T13:56:30;99543.69;;;17.41;nan
44349;BME280;30068;50.986;4.564;2023-03-13T14:01:24;99547.88;;;17.44;nan
44349;BME280;30068;50.986;4.564;2023-03-13T14:03:50;99536.19;;;17.30;nan
44349;BME280;30068;50.986;4.564;2023-03-13T14:06:16;99532.28;;;17.32;nan
44349;BME280;30068;50.986;4.564;2023-03-13T14:08:42;99527.50;;;17.41;nan
44349;BME280;30068;50.986;4.564;2023-03-13T14:16:35;99538.19;;;17.15;nan
44349;BME280;30068;50.986;4.564;2023-03-13T14:19:01;99525.38;;;17.23;nan
44349;BME280;30068;50.986;4.564;2023-03-13T14:21:26;99525.41;;;17.30;nan
44349;BME280;30068;50.986;4.564;2023-03-13T14:23:52;99523.53;;;17.24;nan
44349;BME280;30068;50.986;4.564;2023-03-13T14:28:43;99499.25;;;17.24;nan
44349;BME280;30068;50.986;4.564;2023-03-13T14:31:09;99518.78;;;17.32;nan
44349;BME280;30068;50.986;4.564;2023-03-13T14:33:36;99507.19;;;17.38;nan
44349;BME280;30068;50.986;4.564;2023-03-13T14:36:01;99509.91;;;17.45;nan
44349;BME280;30068;50.986;4.564;2023-03-13T14:38:27;99512.56;;;17.32;nan
44349;BME280;30068;50.986;4.564;2023-03-13T14:40:54;99502.63;;;17.32;nan
44349;BME280;30068;50.986;4.564;2023-03-13T14:43:30;99500.09;;;17.24;nan